Portada
METAR-TAF:

METAR-TAF

Aeropuertos :

El Bayadh, Argelia

latitud: 33-43-15N, longitud: 1-05-29E, altitud: 1366 m

Observación

El informe se hizo hace 1 hora y 12 minutos, a las 23:00 UTC
Viento 14 kt del noreste
Temperatura 19°C
Humedad 60%
Presión 1026 hPa
Visibilidad 10 km o más
Escasas nubes a una altura de 3000 ft

METAR: DAOY 182300Z 04014KT 9999 FEW030 19/11 Q1026

Hora: 01:12 (00:12 UTC)


TAF: falta

Observaciones y pronósticos meteorológicos de más de 4000 aeropuertos (mensajes METAR y TAF).

Los puntos amarillos y rojos representan las estaciones disponibles.

Ponga el ratón en el punto deseado para ver el nombre de la estación.

Haga clic para ver las observaciones y los pronósticos meteorológicos.

Para cambiar el mapa : haga clic en los botones verdes con una cruz de color negro para hacer un zoom, en el botón verde con un guión para alejar o en las flechas verdes para mapas adyacentes.


METAR-TAF: